Time;durP1;ratioP1;P1;durP2;ratioP2;P2;SDS_P1;SDS_P2;PMS_P1;PMS_P2;Temp;Humidity;BMP_temperature;BMP_pressure;BME280_temperature;BME280_humidity;BME280_pressure;Samples;Min_cycle;Max_cycle;Signal;HPM_P1;HPM_P2
2023/06/11 00:00:30;;;;;;;13.03;11.93;;;;;;;18.06;96.11;92320.19;5008197;28;20240;-70
2023/06/11 00:02:56;;;;;;;13.30;12.30;;;;;;;18.21;96.19;92330.09;5012433;28;20227;-71
2023/06/11 00:05:23;;;;;;;14.13;12.63;;;;;;;18.02;97.78;92319.31;5011922;28;20252;-71
2023/06/11 00:07:48;;;;;;;13.07;11.97;;;;;;;18.21;96.64;92327.47;5012438;28;20191;-71
2023/06/11 00:10:15;;;;;;;14.40;13.10;;;;;;;18.19;96.18;92313.78;5016483;28;20228;-73
2023/06/11 00:12:41;;;;;;;13.77;12.40;;;;;;;18.28;96.23;92322.38;5010332;28;20238;-71
2023/06/11 00:15:07;;;;;;;12.83;11.73;;;;;;;18.24;96.40;92316.97;5009311;28;20234;-71
2023/06/11 00:17:33;;;;;;;12.50;11.50;;;;;;;18.13;96.91;92305.34;5016879;28;20192;-75
2023/06/11 00:20:03;;;;;;;13.17;11.93;;;;;;;18.28;95.87;92311.78;5009727;28;20223;-71
2023/06/11 00:22:31;;;;;;;12.10;11.10;;;;;;;18.31;95.25;92319.06;4994412;28;20247;-71
2023/06/11 00:24:56;;;;;;;13.53;10.97;;;;;;;18.18;95.58;92328.13;5013512;28;20227;-71
2023/06/11 00:27:22;;;;;;;13.13;12.23;;;;;;;18.04;97.17;92322.41;5010589;28;20176;-71
2023/06/11 00:29:47;;;;;;;12.80;11.70;;;;;;;18.15;97.03;92331.44;5013984;28;20254;-70
2023/06/11 00:32:13;;;;;;;12.47;11.50;;;;;;;18.25;96.56;92331.75;4993273;28;20720;-71
2023/06/11 00:34:38;;;;;;;12.53;11.60;;;;;;;18.04;96.37;92290.69;5022260;28;20258;-70
2023/06/11 00:37:04;;;;;;;11.80;10.90;;;;;;;18.33;95.90;92335.38;5021052;28;20250;-72
2023/06/11 00:39:29;;;;;;;12.33;11.23;;;;;;;18.14;96.71;92321.94;5009600;28;20231;-71
2023/06/11 00:41:57;;;;;;;12.67;11.63;;;;;;;18.15;96.36;92334.06;5015129;28;20214;-71
2023/06/11 00:44:23;;;;;;;12.90;11.90;;;;;;;18.15;96.46;92326.13;5015014;28;20230;-70
2023/06/11 00:46:51;;;;;;;12.17;11.17;;;;;;;17.86;96.98;92292.78;5011474;28;20199;-71
2023/06/11 00:49:16;;;;;;;11.77;10.60;;;;;;;18.06;97.64;92342.09;5012153;28;20223;-72
2023/06/11 00:51:44;;;;;;;13.03;11.97;;;;;;;18.01;97.88;92331.72;5010699;28;20200;-71
2023/06/11 00:54:13;;;;;;;11.63;10.80;;;;;;;17.89;97.52;92326.47;5014175;28;20330;-72
2023/06/11 00:56:45;;;;;;;12.00;11.07;;;;;;;17.93;97.13;92316.75;5011753;28;20184;-71
2023/06/11 00:59:17;;;;;;;11.87;10.97;;;;;;;17.94;96.60;92315.69;5023377;28;20209;-71
2023/06/11 01:01:59;;;;;;;12.23;11.40;;;;;;;17.92;96.27;92315.22;5009589;28;20193;-71
2023/06/11 01:04:29;;;;;;;11.60;10.70;;;;;;;17.91;96.00;92302.34;5010567;28;20330;-71
2023/06/11 01:06:59;;;;;;;12.07;10.97;;;;;;;17.97;95.77;92322.94;5010491;28;20206;-71
2023/06/11 01:09:26;;;;;;;11.67;10.67;;;;;;;17.73;96.94;92316.88;5009431;28;20223;-71
2023/06/11 01:11:54;;;;;;;12.03;11.10;;;;;;;17.89;97.11;92326.47;5010067;28;20234;-71
2023/06/11 01:14:20;;;;;;;12.57;11.53;;;;;;;17.98;97.03;92329.75;5001643;28;20231;-76
2023/06/11 01:16:52;;;;;;;11.80;11.00;;;;;;;18.02;96.61;92314.81;5010890;28;20192;-76
2023/06/11 01:19:29;;;;;;;12.00;11.00;;;;;;;18.03;97.01;92332.19;5010931;28;20228;-76
2023/06/11 01:21:59;;;;;;;12.03;11.10;;;;;;;17.96;96.86;92337.22;5009889;28;20212;-76
2023/06/11 01:24:55;;;;;;;11.90;11.10;;;;;;;18.08;96.35;92339.13;5009101;28;20323;-76
2023/06/11 01:27:43;;;;;;;12.17;11.17;;;;;;;17.96;97.04;92342.50;5010326;28;20188;-76
2023/06/11 01:30:17;;;;;;;12.23;11.33;;;;;;;17.97;96.81;92330.09;5014310;28;20231;-76
2023/06/11 01:32:45;;;;;;;12.63;11.73;;;;;;;17.85;97.43;92330.88;5013397;28;20196;-75
2023/06/11 01:35:12;;;;;;;12.73;11.83;;;;;;;17.77;97.59;92328.31;5016022;28;20229;-76
2023/06/11 01:37:39;;;;;;;13.70;12.63;;;;;;;17.73;96.81;92327.44;5019254;28;20219;-76
2023/06/11 01:40:06;;;;;;;12.53;11.50;;;;;;;17.81;96.59;92323.91;5012623;28;20226;-75
2023/06/11 01:42:32;;;;;;;11.77;10.97;;;;;;;17.86;96.09;92331.63;5022903;28;20294;-76
2023/06/11 01:44:57;;;;;;;12.30;11.40;;;;;;;17.60;95.99;92287.81;5013267;28;20211;-76
2023/06/11 01:47:22;;;;;;;11.77;10.87;;;;;;;17.72;96.82;92320.59;5013188;28;20266;-76
2023/06/11 01:49:48;;;;;;;12.23;11.33;;;;;;;17.55;96.11;92295.97;5012056;28;20884;-75
2023/06/11 01:52:13;;;;;;;11.90;11.00;;;;;;;17.81;95.88;92335.25;5016991;28;20215;-75
2023/06/11 01:54:38;;;;;;;13.07;11.97;;;;;;;17.80;95.81;92322.38;5011917;28;20254;-75
2023/06/11 01:57:04;;;;;;;12.20;11.07;;;;;;;17.89;95.25;92330.97;5012623;28;20184;-76
2023/06/11 01:59:30;;;;;;;12.47;11.47;;;;;;;17.85;95.15;92325.59;5023525;28;20252;-76
2023/06/11 02:01:56;;;;;;;13.00;11.90;;;;;;;17.82;96.20;92346.59;5012300;28;20224;-76
2023/06/11 02:04:22;;;;;;;11.57;10.73;;;;;;;17.55;96.38;92325.00;5013370;28;20291;-76
2023/06/11 02:06:48;;;;;;;12.87;11.97;;;;;;;17.59;95.85;92335.66;5013404;28;20183;-76
2023/06/11 02:09:14;;;;;;;13.50;12.13;;;;;;;17.70;95.55;92338.66;5014192;28;20184;-76
2023/06/11 02:11:39;;;;;;;12.67;11.57;;;;;;;17.86;94.58;92342.19;5012182;28;20220;-76
2023/06/11 02:14:05;;;;;;;11.87;10.97;;;;;;;17.75;93.71;92322.59;5002986;28;20188;-76
2023/06/11 02:16:30;;;;;;;11.27;10.43;;;;;;;17.84;94.07;92339.13;5012600;28;20192;-76
2023/06/11 02:18:55;;;;;;;11.20;10.47;;;;;;;17.78;93.75;92324.56;5013434;28;20192;-75
2023/06/11 02:21:21;;;;;;;11.60;10.80;;;;;;;17.89;93.90;92342.31;5016011;28;20285;-76
2023/06/11 02:23:46;;;;;;;12.07;11.27;;;;;;;17.72;94.11;92315.31;5012243;28;20212;-76
2023/06/11 02:26:12;;;;;;;12.67;11.43;;;;;;;17.80;94.24;92327.66;5011780;28;20323;-76
2023/06/11 02:28:37;;;;;;;12.43;11.53;;;;;;;17.58;95.15;92319.06;5016811;28;20183;-75
2023/06/11 02:31:02;;;;;;;13.20;12.10;;;;;;;17.60;94.60;92318.72;5011663;28;20232;-76
2023/06/11 02:33:28;;;;;;;11.10;10.30;;;;;;;17.80;93.98;92335.56;5014996;28;20184;-76
2023/06/11 02:35:53;;;;;;;11.67;10.73;;;;;;;17.79;94.59;92337.44;5015997;28;20234;-76
2023/06/11 02:38:18;;;;;;;12.10;11.23;;;;;;;17.76;94.03;92340.00;5012159;28;20615;-76
2023/06/11 02:40:44;;;;;;;12.17;11.23;;;;;;;17.75;93.56;92346.34;5011704;28;20255;-70
2023/06/11 02:43:09;;;;;;;11.37;10.57;;;;;;;17.63;94.12;92337.31;5011112;28;20232;-71
2023/06/11 02:45:35;;;;;;;12.13;10.93;;;;;;;17.52;93.92;92320.38;5011898;28;20230;-70
2023/06/11 02:48:01;;;;;;;12.27;11.47;;;;;;;17.50;94.31;92325.19;5016521;28;20187;-72
2023/06/11 02:50:26;;;;;;;12.70;11.60;;;;;;;17.39;94.83;92326.69;5019896;28;20254;-71
2023/06/11 02:52:52;;;;;;;12.40;11.23;;;;;;;17.43;95.22;92330.19;5012778;28;20195;-71
2023/06/11 02:55:17;;;;;;;12.53;11.43;;;;;;;17.28;95.40;92322.91;4994403;28;20224;-72
2023/06/11 02:57:43;;;;;;;11.93;11.10;;;;;;;17.30;95.38;92312.81;5012138;28;20192;-71
2023/06/11 03:00:10;;;;;;;11.80;10.93;;;;;;;17.44;94.55;92320.44;5011131;28;20243;-71
2023/06/11 03:02:36;;;;;;;12.43;11.50;;;;;;;17.31;94.10;92293.22;5013058;28;20211;-70
2023/06/11 03:05:02;;;;;;;11.83;10.97;;;;;;;17.61;93.97;92325.53;5014735;28;20239;-71
2023/06/11 03:07:27;;;;;;;10.97;10.17;;;;;;;17.22;94.40;92292.56;5011689;28;20210;-72
2023/06/11 03:09:52;;;;;;;12.33;11.47;;;;;;;17.46;94.91;92329.56;5015321;28;20223;-70
2023/06/11 03:12:18;;;;;;;12.03;10.83;;;;;;;17.38;95.00;92305.91;5012190;28;20238;-71
2023/06/11 03:14:43;;;;;;;12.20;11.20;;;;;;;17.47;94.91;92336.41;5003367;28;20223;-71
2023/06/11 03:17:09;;;;;;;11.00;10.13;;;;;;;17.55;94.56;92342.69;5011345;28;20203;-70
2023/06/11 03:19:34;;;;;;;12.10;11.10;;;;;;;17.57;93.99;92349.19;5012235;28;20227;-70
2023/06/11 03:22:00;;;;;;;12.27;11.37;;;;;;;17.54;94.25;92344.56;5010995;28;20210;-70
2023/06/11 03:24:25;;;;;;;11.57;10.57;;;;;;;17.48;94.68;92353.78;5011935;28;20258;-71
2023/06/11 03:26:51;;;;;;;11.67;10.73;;;;;;;17.45;95.11;92362.34;5014651;28;20200;-71
2023/06/11 03:29:16;;;;;;;12.67;11.77;;;;;;;17.52;94.26;92344.13;5010997;28;20239;-71
2023/06/11 03:31:43;;;;;;;11.50;10.70;;;;;;;17.73;93.16;92359.88;5010673;28;20196;-72
2023/06/11 03:34:09;;;;;;;11.93;11.03;;;;;;;17.74;93.35;92350.09;5012128;28;20176;-71
2023/06/11 03:36:34;;;;;;;12.57;11.27;;;;;;;17.83;93.28;92367.38;4993965;28;20183;-71
2023/06/11 03:38:59;;;;;;;12.40;11.40;;;;;;;17.67;93.19;92339.28;5010708;28;20179;-71
2023/06/11 03:41:25;;;;;;;11.30;10.60;;;;;;;17.85;93.71;92364.41;5010750;28;20849;-71
2023/06/11 03:43:51;;;;;;;12.30;11.20;;;;;;;18.03;93.43;92373.66;5002818;28;20279;-71
2023/06/11 03:46:17;;;;;;;12.07;11.17;;;;;;;17.95;93.46;92366.63;5010741;28;20226;-72
2023/06/11 03:48:42;;;;;;;12.70;11.60;;;;;;;18.07;93.75;92375.31;5014967;28;20191;-71
2023/06/11 03:51:08;;;;;;;12.30;11.23;;;;;;;18.24;93.33;92382.28;5009419;28;20211;-71
2023/06/11 03:53:33;;;;;;;12.50;11.60;;;;;;;18.32;93.25;92376.88;5010910;28;20198;-70
2023/06/11 03:55:59;;;;;;;10.97;10.27;;;;;;;18.22;93.39;92377.34;5010247;28;20221;-71
2023/06/11 03:58:24;;;;;;;11.80;11.07;;;;;;;18.23;93.92;92378.09;5011190;28;20184;-72
2023/06/11 04:00:50;;;;;;;12.83;11.93;;;;;;;18.36;93.59;92364.56;5010798;28;20215;-71
2023/06/11 04:03:15;;;;;;;12.57;11.50;;;;;;;18.55;93.43;92375.34;5014882;28;20212;-71
2023/06/11 04:05:42;;;;;;;12.50;11.50;;;;;;;18.55;93.40;92379.88;5011671;28;20226;-70
2023/06/11 04:08:07;;;;;;;12.60;11.63;;;;;;;18.57;92.84;92377.66;5011272;28;20184;-72
2023/06/11 04:10:33;;;;;;;11.23;10.17;;;;;;;18.65;92.67;92359.03;5009724;28;20295;-71
2023/06/11 04:12:58;;;;;;;11.83;10.90;;;;;;;18.79;92.37;92379.81;5007653;28;20242;-71
2023/06/11 04:15:23;;;;;;;12.77;11.77;;;;;;;18.85;92.24;92367.91;4996036;28;20240;-71
2023/06/11 04:17:49;;;;;;;12.93;11.97;;;;;;;19.01;90.60;92379.34;5014936;28;20253;-71
2023/06/11 04:20:14;;;;;;;13.20;12.10;;;;;;;19.04;90.00;92382.09;5022552;28;20233;-75
2023/06/11 04:22:40;;;;;;;13.20;11.80;;;;;;;19.00;90.64;92349.44;4993023;28;20224;-75
2023/06/11 04:25:06;;;;;;;13.30;12.30;;;;;;;19.18;88.64;92379.06;5018810;28;20255;-75
2023/06/11 04:27:33;;;;;;;12.83;11.87;;;;;;;19.27;87.32;92371.75;5010164;28;20208;-70
2023/06/11 04:30:00;;;;;;;11.80;10.90;;;;;;;18.93;86.97;92364.38;5010564;28;20236;-73
2023/06/11 04:32:26;;;;;;;13.13;12.13;;;;;;;19.23;86.63;92364.81;5005707;28;20204;-71
2023/06/11 04:34:53;;;;;;;13.17;12.17;;;;;;;19.47;85.70;92372.72;5008827;28;20305;-71
2023/06/11 04:37:19;;;;;;;11.30;10.47;;;;;;;19.22;84.84;92355.34;5011489;28;20200;-71
2023/06/11 04:39:45;;;;;;;13.17;11.87;;;;;;;19.29;85.85;92368.78;5006012;28;20727;-70
2023/06/11 04:42:11;;;;;;;12.13;11.27;;;;;;;19.49;85.11;92359.88;5009036;28;20304;-72
2023/06/11 04:44:38;;;;;;;12.67;11.77;;;;;;;19.50;84.82;92356.13;5008294;28;20230;-71
2023/06/11 04:47:05;;;;;;;12.33;11.43;;;;;;;19.59;84.96;92354.88;5008923;28;20245;-73
2023/06/11 04:49:30;;;;;;;11.90;11.10;;;;;;;19.68;86.22;92373.25;5008780;28;20242;-75
2023/06/11 04:51:58;;;;;;;12.40;11.43;;;;;;;19.73;86.36;92373.78;5007235;28;20215;-75
2023/06/11 04:54:23;;;;;;;12.60;11.60;;;;;;;19.71;85.99;92373.34;5004530;28;20227;-75
2023/06/11 04:56:49;;;;;;;12.93;11.77;;;;;;;19.81;85.13;92361.47;5016891;28;20240;-76
2023/06/11 04:59:15;;;;;;;13.37;12.00;;;;;;;19.78;86.00;92368.22;5008703;28;20192;-76
2023/06/11 05:01:46;;;;;;;12.00;11.13;;;;;;;19.82;85.93;92376.25;5009406;28;20203;-75
2023/06/11 05:04:13;;;;;;;13.47;12.17;;;;;;;19.67;86.59;92377.00;5011932;28;20220;-76
2023/06/11 05:06:42;;;;;;;13.43;12.13;;;;;;;19.58;85.82;92366.56;5006842;28;20191;-76
2023/06/11 05:09:08;;;;;;;12.90;11.90;;;;;;;19.91;84.39;92372.34;5002019;28;20193;-76
2023/06/11 05:11:33;;;;;;;12.37;11.33;;;;;;;20.14;82.56;92381.28;5012576;28;20237;-76
2023/06/11 05:13:58;;;;;;;13.53;12.43;;;;;;;20.12;82.42;92382.69;5009484;28;20201;-76
2023/06/11 05:16:26;;;;;;;13.00;11.73;;;;;;;19.80;85.67;92376.59;5004418;28;20202;-76
2023/06/11 05:18:51;;;;;;;13.27;12.27;;;;;;;19.87;84.36;92371.50;5011478;28;20194;-76
2023/06/11 05:21:16;;;;;;;12.70;11.60;;;;;;;20.20;83.52;92371.94;5009152;28;20265;-71
2023/06/11 05:23:42;;;;;;;13.90;12.53;;;;;;;20.27;83.19;92384.59;5009072;28;20252;-72
2023/06/11 05:26:12;;;;;;;13.30;12.23;;;;;;;20.13;84.20;92395.66;5012294;28;20244;-70
2023/06/11 05:28:37;;;;;;;13.53;12.43;;;;;;;20.05;84.20;92375.34;5014390;28;20197;-71
2023/06/11 05:31:03;;;;;;;14.37;13.07;;;;;;;20.19;81.85;92386.31;5013028;28;20293;-70
2023/06/11 05:33:30;;;;;;;13.37;12.10;;;;;;;20.22;82.67;92398.09;5012118;28;20196;-71
2023/06/11 05:35:56;;;;;;;13.30;12.13;;;;;;;20.17;83.89;92391.19;5012118;28;20244;-72
2023/06/11 05:38:21;;;;;;;14.27;13.17;;;;;;;20.04;84.63;92395.00;5013437;28;20191;-72
2023/06/11 05:40:47;;;;;;;13.87;12.43;;;;;;;20.08;83.01;92387.91;5011665;28;20346;-71
2023/06/11 05:43:13;;;;;;;13.27;12.17;;;;;;;20.47;82.92;92405.56;5021654;28;20217;-70
2023/06/11 05:45:46;;;;;;;14.17;12.67;;;;;;;20.21;82.63;92386.75;5011549;28;20234;-70
2023/06/11 05:48:11;;;;;;;13.53;12.17;;;;;;;20.88;80.74;92403.44;5011801;28;20224;-70
2023/06/11 05:50:37;;;;;;;12.10;11.00;;;;;;;21.31;78.70;92411.22;5011449;28;20226;-71
2023/06/11 05:53:02;;;;;;;12.63;11.40;;;;;;;21.41;78.09;92416.75;5011745;28;20202;-71
2023/06/11 05:55:27;;;;;;;16.80;15.37;;;;;;;20.95;80.37;92411.56;5010653;28;20245;-71
2023/06/11 05:57:53;;;;;;;13.18;12.07;;;;;;;21.25;78.01;92404.63;5011604;28;20186;-70
2023/06/11 06:00:18;;;;;;;12.27;11.38;;;;;;;21.45;77.28;92411.50;4994069;28;20226;-71
2023/06/11 06:02:44;;;;;;;12.32;11.25;;;;;;;21.91;75.56;92410.53;5008823;28;20214;-69
2023/06/11 06:05:09;;;;;;;11.32;10.43;;;;;;;21.78;75.57;92409.91;5007978;28;20249;-70
2023/06/11 06:07:35;;;;;;;13.57;12.30;;;;;;;22.01;74.49;92413.38;5010519;28;20194;-70
2023/06/11 06:10:02;;;;;;;13.00;11.80;;;;;;;21.52;77.71;92408.97;5011087;28;20222;-72
2023/06/11 06:12:27;;;;;;;13.35;12.15;;;;;;;22.17;75.22;92407.94;5011157;28;20224;-68
2023/06/11 06:14:53;;;;;;;12.55;11.52;;;;;;;21.71;75.33;92408.97;5010272;28;20282;-69
2023/06/11 06:17:18;;;;;;;11.65;10.65;;;;;;;21.61;73.94;92412.19;5012202;28;20199;-70
2023/06/11 06:19:43;;;;;;;13.43;12.32;;;;;;;21.99;74.10;92409.53;5010960;28;20243;-71
2023/06/11 06:22:09;;;;;;;12.50;11.45;;;;;;;22.44;69.87;92414.09;5011024;28;20221;-69
2023/06/11 06:24:34;;;;;;;11.13;10.23;;;;;;;22.23;70.98;92403.13;5009390;28;20225;-68
2023/06/11 06:27:00;;;;;;;12.98;11.63;;;;;;;22.45;71.18;92410.28;5010945;28;20175;-68
2023/06/11 06:29:28;;;;;;;11.85;10.82;;;;;;;22.61;69.30;92417.06;5010141;28;20241;-71
2023/06/11 06:31:54;;;;;;;11.95;11.13;;;;;;;22.73;66.97;92411.53;5009944;28;20246;-70
2023/06/11 06:34:19;;;;;;;12.20;11.20;;;;;;;22.61;68.34;92422.38;5010243;28;20225;-68
2023/06/11 06:36:46;;;;;;;15.85;12.30;;;;;;;22.92;68.03;92419.44;5011304;28;20281;-70
2023/06/11 06:39:11;;;;;;;11.75;10.85;;;;;;;22.47;69.52;92419.47;5010256;28;20196;-69
2023/06/11 06:41:37;;;;;;;12.63;11.50;;;;;;;23.14;67.88;92410.63;5009514;28;20247;-70
2023/06/11 06:44:03;;;;;;;12.55;11.50;;;;;;;23.61;65.21;92416.19;5002777;28;20214;-70
2023/06/11 06:46:28;;;;;;;12.15;11.25;;;;;;;24.23;63.95;92430.63;5005638;28;20210;-67
2023/06/11 06:48:54;;;;;;;13.38;12.10;;;;;;;23.91;65.33;92420.72;5005795;28;20214;-67
2023/06/11 06:51:20;;;;;;;11.82;10.90;;;;;;;23.97;63.31;92421.97;5006693;28;20227;-69
2023/06/11 06:53:48;;;;;;;12.95;11.80;;;;;;;23.70;64.98;92413.25;5010510;28;20210;-66
2023/06/11 06:56:14;;;;;;;13.23;12.02;;;;;;;24.27;64.17;92412.75;5010527;28;20305;-68
2023/06/11 06:58:40;;;;;;;12.52;11.35;;;;;;;24.49;62.27;92422.47;5010574;28;20180;-70
2023/06/11 07:01:06;;;;;;;13.05;11.50;;;;;;;24.49;62.03;92419.03;5012196;28;20294;-72
2023/06/11 07:03:33;;;;;;;12.80;11.63;;;;;;;24.63;61.73;92411.91;5018166;28;20285;-71
2023/06/11 07:05:59;;;;;;;13.15;11.77;;;;;;;23.89;64.96;92417.66;5012155;28;20211;-70
2023/06/11 07:08:26;;;;;;;12.90;11.68;;;;;;;24.82;62.66;92426.97;5010026;28;20242;-72
2023/06/11 07:10:54;;;;;;;12.50;11.50;;;;;;;25.14;60.98;92428.72;5009594;28;20259;-69
2023/06/11 07:13:21;;;;;;;14.77;11.50;;;;;;;25.10;60.93;92427.16;5005603;28;20199;-68
2023/06/11 07:15:46;;;;;;;13.27;12.18;;;;;;;23.83;65.73;92403.13;5009757;28;20249;-68
2023/06/11 07:18:12;;;;;;;12.52;11.48;;;;;;;24.66;63.02;92421.88;5009762;28;20226;-68
2023/06/11 07:20:38;;;;;;;13.10;12.00;;;;;;;25.17;61.56;92422.63;5009296;28;20813;-70
2023/06/11 07:23:03;;;;;;;12.98;11.75;;;;;;;25.70;58.86;92430.94;5002589;28;20214;-69
2023/06/11 07:25:28;;;;;;;12.27;11.13;;;;;;;25.69;57.44;92424.06;5008685;28;20238;-68
2023/06/11 07:28:04;;;;;;;11.30;10.38;;;;;;;25.64;57.17;92419.09;5010452;28;20183;-70
2023/06/11 07:30:31;;;;;;;12.55;11.55;;;;;;;24.94;59.73;92418.66;5003130;28;20234;-71
2023/06/11 07:32:58;;;;;;;11.52;10.52;;;;;;;25.70;58.24;92414.91;5013562;28;20192;-69
2023/06/11 07:35:24;;;;;;;14.20;12.65;;;;;;;24.88;61.04;92417.47;5009416;28;20595;-68
2023/06/11 07:37:50;;;;;;;12.63;11.48;;;;;;;24.78;60.64;92412.84;5013848;28;20193;-69
2023/06/11 07:40:16;;;;;;;12.00;11.18;;;;;;;25.14;60.08;92417.25;5010614;28;20231;-68
2023/06/11 07:42:45;;;;;;;13.07;11.43;;;;;;;24.16;62.92;92411.09;5021585;28;20870;-68
2023/06/11 07:45:12;;;;;;;11.88;10.90;;;;;;;24.63;62.09;92416.47;5019495;28;20253;-69
2023/06/11 07:47:38;;;;;;;12.93;11.82;;;;;;;25.02;60.55;92415.66;5013574;28;20196;-68
2023/06/11 07:50:04;;;;;;;12.52;11.40;;;;;;;25.22;58.93;92408.16;5013607;28;20298;-68
2023/06/11 07:52:30;;;;;;;11.93;10.75;;;;;;;24.68;59.84;92394.81;5012862;28;20194;-69
2023/06/11 07:54:55;;;;;;;12.02;11.13;;;;;;;24.49;60.53;92403.78;5013542;28;20242;-66
2023/06/11 07:57:21;;;;;;;10.80;10.10;;;;;;;24.56;60.33;92400.41;5013476;28;20173;-68
2023/06/11 07:59:46;;;;;;;11.25;10.45;;;;;;;23.52;61.08;92373.06;5012750;28;20300;-69
2023/06/11 08:02:12;;;;;;;11.73;10.52;;;;;;;24.63;60.59;92400.47;5013181;28;20354;-69
2023/06/11 08:04:38;;;;;;;11.55;10.70;;;;;;;24.65;59.75;92400.88;5009061;28;20234;-72
2023/06/11 08:07:04;;;;;;;13.18;11.98;;;;;;;24.37;56.75;92400.63;5006197;28;20188;-70
2023/06/11 08:09:32;;;;;;;11.55;10.32;;;;;;;24.13;59.63;92399.25;5011702;28;20255;-72
2023/06/11 08:11:57;;;;;;;11.82;10.95;;;;;;;24.25;57.92;92396.31;5017147;28;20252;-71
2023/06/11 08:14:23;;;;;;;11.60;10.55;;;;;;;24.20;58.47;92399.34;5017303;28;20225;-65
2023/06/11 08:16:48;;;;;;;11.57;10.77;;;;;;;24.04;58.33;92398.03;5011478;28;20184;-66
2023/06/11 08:19:14;;;;;;;11.10;10.00;;;;;;;23.93;58.93;92397.13;5011109;28;20186;-69
2023/06/11 08:21:41;;;;;;;12.35;11.43;;;;;;;23.95;58.19;92384.97;5010722;28;20198;-68
2023/06/11 08:24:07;;;;;;;12.05;11.05;;;;;;;24.23;60.74;92379.16;5010768;28;20214;-69
2023/06/11 08:26:32;;;;;;;12.38;11.18;;;;;;;24.39;57.95;92390.38;5019767;28;20200;-67
2023/06/11 08:28:58;;;;;;;12.35;11.23;;;;;;;24.56;57.81;92381.72;5020918;28;20230;-69
2023/06/11 08:31:24;;;;;;;12.27;11.05;;;;;;;24.53;60.44;92366.47;5023701;28;20228;-69
2023/06/11 08:33:50;;;;;;;11.77;10.82;;;;;;;24.87;56.88;92397.25;5011879;28;20194;-69
2023/06/11 08:36:16;;;;;;;12.25;11.20;;;;;;;24.54;58.81;92392.78;5012487;28;20236;-68
2023/06/11 08:38:41;;;;;;;13.07;11.10;;;;;;;24.35;60.07;92382.31;5022475;28;20216;-70
2023/06/11 08:41:07;;;;;;;13.30;11.95;;;;;;;24.63;57.87;92393.22;5015156;28;20224;-69
2023/06/11 08:43:33;;;;;;;11.40;10.40;;;;;;;25.11;58.74;92389.38;5016283;28;20221;-69
2023/06/11 08:45:58;;;;;;;12.25;11.15;;;;;;;25.24;57.28;92392.50;5014944;28;20229;-69
2023/06/11 08:48:24;;;;;;;11.02;10.23;;;;;;;25.13;58.23;92399.69;5014864;28;20238;-69
2023/06/11 08:50:50;;;;;;;11.65;10.75;;;;;;;25.14;55.89;92402.00;5014594;28;20289;-71
2023/06/11 08:53:16;;;;;;;12.20;11.10;;;;;;;25.27;54.45;92399.78;5015892;28;20240;-72
2023/06/11 08:55:44;;;;;;;12.60;11.40;;;;;;;25.31;54.53;92405.16;5009612;28;20293;-72
2023/06/11 08:58:11;;;;;;;10.77;9.88;;;;;;;25.29;53.13;92395.59;5021479;28;20253;-72
2023/06/11 09:00:37;;;;;;;11.63;10.45;;;;;;;25.14;53.40;92396.66;5017746;28;20289;-72
2023/06/11 09:03:04;;;;;;;10.60;9.70;;;;;;;25.15;55.98;92402.78;5012958;28;20214;-73
2023/06/11 09:05:31;;;;;;;11.43;10.40;;;;;;;25.20;50.93;92391.72;5010972;28;20814;-72
2023/06/11 09:07:57;;;;;;;13.45;11.70;;;;;;;25.30;52.60;92388.34;5011171;28;20194;-78
2023/06/11 09:10:23;;;;;;;10.75;10.05;;;;;;;25.15;52.66;92360.03;5014139;28;20222;-78
2023/06/11 09:12:49;;;;;;;10.38;9.45;;;;;;;25.45;51.69;92383.88;5013200;28;20888;-78
2023/06/11 09:15:15;;;;;;;11.20;10.20;;;;;;;25.42;51.56;92385.38;5011726;28;20301;-75
2023/06/11 09:17:43;;;;;;;11.15;10.13;;;;;;;24.82;51.30;92378.91;5012401;28;20222;-75
2023/06/11 09:20:11;;;;;;;10.73;9.93;;;;;;;24.64;50.51;92361.97;5011360;28;20226;-79
2023/06/11 09:22:38;;;;;;;11.13;10.05;;;;;;;24.55;52.44;92377.50;5010403;28;20212;-79
2023/06/11 09:25:16;;;;;;;10.77;9.88;;;;;;;24.38;50.78;92375.47;5002425;28;20219;-69
2023/06/11 09:27:43;;;;;;;11.45;10.43;;;;;;;24.52;53.72;92359.56;5012144;28;20201;-69
2023/06/11 09:30:19;;;;;;;11.73;10.77;;;;;;;24.77;52.10;92365.88;5010726;28;20233;-72
2023/06/11 09:32:46;;;;;;;11.07;10.18;;;;;;;24.41;53.06;92364.06;4994786;28;20236;-73
2023/06/11 09:35:13;;;;;;;11.70;10.63;;;;;;;24.37;54.86;92363.25;5009604;28;20214;-70
2023/06/11 09:37:47;;;;;;;12.35;11.25;;;;;;;24.69;55.24;92369.63;5013851;28;20182;-75
2023/06/11 09:40:17;;;;;;;11.63;10.73;;;;;;;24.65;55.55;92363.50;5012945;28;20249;-70
2023/06/11 09:42:44;;;;;;;13.30;11.98;;;;;;;24.82;55.08;92369.00;5012666;28;20208;-71
2023/06/11 09:45:20;;;;;;;12.00;10.75;;;;;;;24.85;57.55;92373.59;4998083;28;20767;-71
2023/06/11 09:47:47;;;;;;;13.10;11.82;;;;;;;24.77;54.68;92344.53;5010560;28;20192;-71
2023/06/11 09:50:15;;;;;;;12.05;11.20;;;;;;;24.62;51.91;92356.22;5004660;28;20585;-69
2023/06/11 09:52:42;;;;;;;13.00;11.82;;;;;;;24.40;51.32;92346.50;5011416;28;20179;-70
2023/06/11 09:55:09;;;;;;;11.32;10.45;;;;;;;24.73;52.99;92359.75;4989297;28;20255;-71
2023/06/11 09:57:39;;;;;;;12.85;11.75;;;;;;;24.86;51.83;92359.09;5010915;28;20193;-70
2023/06/11 10:00:10;;;;;;;13.80;12.50;;;;;;;24.74;52.24;92339.91;4998794;28;20222;-72
2023/06/11 10:02:39;;;;;;;12.85;11.65;;;;;;;25.03;52.18;92349.63;5010675;28;20247;-71
2023/06/11 10:05:06;;;;;;;11.93;10.82;;;;;;;25.14;48.54;92326.41;5007200;28;20233;-71
2023/06/11 10:07:38;;;;;;;13.13;11.63;;;;;;;24.95;49.30;92318.69;5002745;28;20197;-68
2023/06/11 10:10:05;;;;;;;11.23;10.32;;;;;;;25.15;50.33;92338.66;5010530;28;20232;-70
2023/06/11 10:12:33;;;;;;;11.82;10.73;;;;;;;25.37;51.91;92350.22;4993580;28;20241;-71
2023/06/11 10:14:59;;;;;;;14.40;10.77;;;;;;;25.39;48.48;92354.03;5001308;28;20231;-68
2023/06/11 10:17:24;;;;;;;28.98;12.68;;;;;;;25.27;50.37;92340.97;5010987;28;20202;-71
2023/06/11 10:19:51;;;;;;;12.23;11.02;;;;;;;25.68;53.63;92342.31;5010884;28;20249;-69
2023/06/11 10:22:21;;;;;;;11.40;10.43;;;;;;;25.80;49.55;92336.63;5010691;28;20219;-70
2023/06/11 10:24:57;;;;;;;15.60;13.93;;;;;;;25.56;49.65;92334.63;5010398;28;20231;-74
2023/06/11 10:27:34;;;;;;;12.85;11.65;;;;;;;25.82;50.45;92333.56;5011434;28;20210;-73
2023/06/11 10:29:59;;;;;;;13.68;12.23;;;;;;;25.65;50.37;92327.00;5010122;28;20221;-73
2023/06/11 10:32:25;;;;;;;12.13;11.02;;;;;;;25.73;51.60;92325.16;5006187;28;20194;-76
2023/06/11 10:35:03;;;;;;;12.85;11.52;;;;;;;25.63;47.32;92310.59;5010158;28;20265;-75
2023/06/11 10:37:28;;;;;;;12.45;11.30;;;;;;;26.03;47.76;92321.00;5012312;28;20195;-75
2023/06/11 10:39:54;;;;;;;12.05;11.07;;;;;;;25.62;49.09;92319.75;5009480;28;20243;-74
2023/06/11 10:42:38;;;;;;;13.13;11.82;;;;;;;25.55;49.86;92317.06;5002157;28;20283;-75
2023/06/11 10:45:13;;;;;;;12.65;11.50;;;;;;;25.34;50.32;92311.63;5006653;28;20226;-75
2023/06/11 10:47:49;;;;;;;14.52;12.15;;;;;;;25.73;51.99;92319.78;5006102;28;20252;-73
2023/06/11 10:50:30;;;;;;;13.07;11.98;;;;;;;25.94;49.34;92319.81;5010517;28;20230;-78
2023/06/11 10:52:58;;;;;;;11.85;10.85;;;;;;;25.84;52.17;92318.66;5012211;28;20194;-73
2023/06/11 10:55:29;;;;;;;12.60;11.50;;;;;;;25.26;48.05;92315.41;5017065;28;20218;-70
2023/06/11 10:57:59;;;;;;;12.35;11.00;;;;;;;25.92;48.67;92319.44;5011897;28;20221;-72
2023/06/11 11:00:28;;;;;;;13.88;11.30;;;;;;;26.19;47.08;92313.41;5011821;28;20249;-72
2023/06/11 11:02:55;;;;;;;11.43;10.52;;;;;;;26.26;49.12;92310.69;5011325;28;20215;-71
2023/06/11 11:05:20;;;;;;;11.60;10.60;;;;;;;26.21;46.30;92313.75;5012324;28;20247;-73
2023/06/11 11:07:46;;;;;;;11.95;10.98;;;;;;;26.12;47.34;92299.22;5012590;28;20180;-73
2023/06/11 11:10:18;;;;;;;11.60;10.70;;;;;;;26.18;46.00;92313.78;5017128;28;20226;-74
2023/06/11 11:12:48;;;;;;;11.73;10.73;;;;;;;26.52;44.35;92313.00;5010808;28;20223;-70
2023/06/11 11:15:14;;;;;;;11.70;10.75;;;;;;;26.66;43.49;92313.00;5011990;28;20225;-71